Portada
METAR-TAF:

METAR-TAF

Aeroports :

Ōdate-Noshiro, Japó

latitud: 40-11N, longitud: 140-12E, altitud: 84 m

Observació

L'informe es va fer fa 48 minuts, a les 00:00 UTC
Vent 14 kt del Sud amb ràfegues de 26 kt, variant entre Sud-Est i Sud/Sud-Oest
Temperatura 23°C
Humitat 44%
Pressió 1012 hPa
Visibilitat 10 km o més
Escasses núvols a una alçada de 4000 ft
Núvols disperses

METAR: RJSR 200000Z 17014G26KT 130V200 9999 FEW040 SCT/// 23/10 Q1012

Hora: 09:48 (00:48 UTC)


TAF: manca

Observacions i pronòstics meteorològics de més de 4000 aeroports (METAR i TAF).

Les estacions disponibles són els punts grocs i vermells al mapa.

Posi el ratolí al punt desitjat per veure el nom de l'estació.

Feu clic per veure les observacions i els pronòstics meteorològics.

Per canviar el mapa: feu clic els botons verds amb una creu de color negre per apropar; al botó verd amb un guió per allunyar la imatge; o en les fletxes verdes per a mapes adjacents.


METAR-TAF: